sensor_id;sensor_type;location;lat;lon;timestamp;P1;durP1;ratioP1;P2;durP2;ratioP2
35679;SDS011;21803;53.586;10.040;2024-03-06T00:01:30;1.17;;;1.00;;
35679;SDS011;21803;53.586;10.040;2024-03-06T00:03:56;1.00;;;0.90;;
35679;SDS011;21803;53.586;10.040;2024-03-06T00:06:22;1.00;;;0.90;;
35679;SDS011;21803;53.586;10.040;2024-03-06T00:08:49;1.00;;;0.90;;
35679;SDS011;21803;53.586;10.040;2024-03-06T00:11:15;1.00;;;0.88;;
35679;SDS011;21803;53.586;10.040;2024-03-06T00:13:41;1.08;;;0.98;;
35679;SDS011;21803;53.586;10.040;2024-03-06T00:16:06;2.13;;;1.00;;
35679;SDS011;21803;53.586;10.040;2024-03-06T00:18:32;1.15;;;1.05;;
35679;SDS011;21803;53.586;10.040;2024-03-06T00:20:58;1.42;;;1.10;;
35679;SDS011;21803;53.586;10.040;2024-03-06T00:23:23;1.10;;;0.90;;
35679;SDS011;21803;53.586;10.040;2024-03-06T00:25:49;1.42;;;1.10;;
35679;SDS011;21803;53.586;10.040;2024-03-06T00:28:14;1.00;;;0.90;;
35679;SDS011;21803;53.586;10.040;2024-03-06T00:30:40;1.05;;;0.90;;
35679;SDS011;21803;53.586;10.040;2024-03-06T00:33:06;1.23;;;0.90;;
35679;SDS011;21803;53.586;10.040;2024-03-06T00:35:32;1.13;;;0.93;;
35679;SDS011;21803;53.586;10.040;2024-03-06T00:37:57;1.10;;;0.80;;
35679;SDS011;21803;53.586;10.040;2024-03-06T00:40:27;0.90;;;0.80;;
35679;SDS011;21803;53.586;10.040;2024-03-06T00:42:55;1.10;;;0.90;;
35679;SDS011;21803;53.586;10.040;2024-03-06T00:45:22;1.00;;;0.90;;
35679;SDS011;21803;53.586;10.040;2024-03-06T00:47:47;1.00;;;0.80;;
35679;SDS011;21803;53.586;10.040;2024-03-06T00:50:13;1.25;;;0.80;;
35679;SDS011;21803;53.586;10.040;2024-03-06T00:52:39;0.75;;;0.70;;
35679;SDS011;21803;53.586;10.040;2024-03-06T00:55:05;1.05;;;0.70;;
35679;SDS011;21803;53.586;10.040;2024-03-06T00:57:30;1.17;;;1.05;;
35679;SDS011;21803;53.586;10.040;2024-03-06T00:59:56;1.08;;;0.93;;
35679;SDS011;21803;53.586;10.040;2024-03-06T01:02:21;0.80;;;0.80;;
35679;SDS011;21803;53.586;10.040;2024-03-06T01:04:47;1.15;;;0.85;;
35679;SDS011;21803;53.586;10.040;2024-03-06T01:07:13;1.00;;;0.90;;
35679;SDS011;21803;53.586;10.040;2024-03-06T01:09:38;0.85;;;0.70;;
35679;SDS011;21803;53.586;10.040;2024-03-06T01:12:04;1.23;;;0.95;;
35679;SDS011;21803;53.586;10.040;2024-03-06T01:14:30;1.02;;;0.90;;
35679;SDS011;21803;53.586;10.040;2024-03-06T01:16:56;1.33;;;0.80;;
35679;SDS011;21803;53.586;10.040;2024-03-06T01:19:21;1.10;;;1.00;;
35679;SDS011;21803;53.586;10.040;2024-03-06T01:21:48;0.98;;;0.88;;
35679;SDS011;21803;53.586;10.040;2024-03-06T01:24:13;0.80;;;0.75;;
35679;SDS011;21803;53.586;10.040;2024-03-06T01:26:39;0.90;;;0.80;;
35679;SDS011;21803;53.586;10.040;2024-03-06T01:29:05;0.80;;;0.80;;
35679;SDS011;21803;53.586;10.040;2024-03-06T01:31:31;1.45;;;0.80;;
35679;SDS011;21803;53.586;10.040;2024-03-06T01:33:57;0.85;;;0.85;;
35679;SDS011;21803;53.586;10.040;2024-03-06T01:36:22;1.08;;;0.93;;
35679;SDS011;21803;53.586;10.040;2024-03-06T01:38:48;0.93;;;0.82;;
35679;SDS011;21803;53.586;10.040;2024-03-06T01:41:14;1.20;;;0.88;;
35679;SDS011;21803;53.586;10.040;2024-03-06T01:43:40;1.10;;;1.00;;
35679;SDS011;21803;53.586;10.040;2024-03-06T01:46:06;0.73;;;0.73;;
35679;SDS011;21803;53.586;10.040;2024-03-06T01:48:32;1.25;;;0.70;;
35679;SDS011;21803;53.586;10.040;2024-03-06T01:51:01;0.98;;;0.80;;
35679;SDS011;21803;53.586;10.040;2024-03-06T01:53:29;1.25;;;1.00;;
35679;SDS011;21803;53.586;10.040;2024-03-06T01:55:58;1.00;;;0.90;;
35679;SDS011;21803;53.586;10.040;2024-03-06T01:58:24;0.80;;;0.75;;
35679;SDS011;21803;53.586;10.040;2024-03-06T02:00:50;1.02;;;0.90;;
35679;SDS011;21803;53.586;10.040;2024-03-06T02:03:20;1.02;;;0.93;;
35679;SDS011;21803;53.586;10.040;2024-03-06T02:05:47;1.38;;;0.90;;
35679;SDS011;21803;53.586;10.040;2024-03-06T02:08:13;1.08;;;0.80;;
35679;SDS011;21803;53.586;10.040;2024-03-06T02:10:39;1.00;;;0.90;;
35679;SDS011;21803;53.586;10.040;2024-03-06T02:13:04;1.25;;;0.98;;
35679;SDS011;21803;53.586;10.040;2024-03-06T02:15:30;0.90;;;0.80;;
35679;SDS011;21803;53.586;10.040;2024-03-06T02:17:55;1.30;;;0.90;;
35679;SDS011;21803;53.586;10.040;2024-03-06T02:20:24;0.80;;;0.80;;
35679;SDS011;21803;53.586;10.040;2024-03-06T02:22:50;0.80;;;0.80;;
35679;SDS011;21803;53.586;10.040;2024-03-06T02:25:16;0.98;;;0.88;;
35679;SDS011;21803;53.586;10.040;2024-03-06T02:27:42;0.85;;;0.80;;
35679;SDS011;21803;53.586;10.040;2024-03-06T02:30:09;1.05;;;0.93;;
35679;SDS011;21803;53.586;10.040;2024-03-06T02:32:35;1.75;;;0.80;;
35679;SDS011;21803;53.586;10.040;2024-03-06T02:35:01;1.10;;;0.80;;
35679;SDS011;21803;53.586;10.040;2024-03-06T02:37:28;1.27;;;1.00;;
35679;SDS011;21803;53.586;10.040;2024-03-06T02:39:54;1.00;;;0.90;;
35679;SDS011;21803;53.586;10.040;2024-03-06T02:42:20;1.00;;;0.80;;
35679;SDS011;21803;53.586;10.040;2024-03-06T02:44:45;0.65;;;0.65;;
35679;SDS011;21803;53.586;10.040;2024-03-06T02:47:11;0.70;;;0.70;;
35679;SDS011;21803;53.586;10.040;2024-03-06T02:49:36;1.00;;;0.90;;
35679;SDS011;21803;53.586;10.040;2024-03-06T02:52:02;1.38;;;1.08;;
35679;SDS011;21803;53.586;10.040;2024-03-06T02:54:28;0.93;;;0.75;;
35679;SDS011;21803;53.586;10.040;2024-03-06T02:56:54;0.80;;;0.80;;
35679;SDS011;21803;53.586;10.040;2024-03-06T02:59:19;0.70;;;0.70;;
35679;SDS011;21803;53.586;10.040;2024-03-06T03:01:45;0.85;;;0.80;;
35679;SDS011;21803;53.586;10.040;2024-03-06T03:04:10;1.10;;;1.00;;
35679;SDS011;21803;53.586;10.040;2024-03-06T03:06:36;1.27;;;1.05;;
35679;SDS011;21803;53.586;10.040;2024-03-06T03:09:02;0.80;;;0.80;;
35679;SDS011;21803;53.586;10.040;2024-03-06T03:11:28;0.90;;;0.90;;
35679;SDS011;21803;53.586;10.040;2024-03-06T03:13:54;0.70;;;0.70;;
35679;SDS011;21803;53.586;10.040;2024-03-06T03:16:20;0.80;;;0.80;;
35679;SDS011;21803;53.586;10.040;2024-03-06T03:18:46;0.70;;;0.70;;
35679;SDS011;21803;53.586;10.040;2024-03-06T03:21:12;0.93;;;0.80;;
35679;SDS011;21803;53.586;10.040;2024-03-06T03:23:39;0.80;;;0.80;;
35679;SDS011;21803;53.586;10.040;2024-03-06T03:26:08;0.80;;;0.80;;
35679;SDS011;21803;53.586;10.040;2024-03-06T03:28:37;1.10;;;1.00;;
35679;SDS011;21803;53.586;10.040;2024-03-06T03:31:05;1.10;;;1.00;;
35679;SDS011;21803;53.586;10.040;2024-03-06T03:33:32;1.00;;;0.90;;
35679;SDS011;21803;53.586;10.040;2024-03-06T03:35:57;0.68;;;0.60;;
35679;SDS011;21803;53.586;10.040;2024-03-06T03:38:23;0.90;;;0.85;;
35679;SDS011;21803;53.586;10.040;2024-03-06T03:40:48;0.90;;;0.80;;
35679;SDS011;21803;53.586;10.040;2024-03-06T03:43:14;0.95;;;0.85;;
35679;SDS011;21803;53.586;10.040;2024-03-06T03:45:39;1.83;;;0.80;;
35679;SDS011;21803;53.586;10.040;2024-03-06T03:48:05;0.70;;;0.70;;
35679;SDS011;21803;53.586;10.040;2024-03-06T03:50:31;0.93;;;0.80;;
35679;SDS011;21803;53.586;10.040;2024-03-06T03:52:57;0.63;;;0.63;;
35679;SDS011;21803;53.586;10.040;2024-03-06T03:55:25;0.80;;;0.80;;
35679;SDS011;21803;53.586;10.040;2024-03-06T03:57:51;0.70;;;0.70;;
35679;SDS011;21803;53.586;10.040;2024-03-06T04:00:17;0.85;;;0.80;;
35679;SDS011;21803;53.586;10.040;2024-03-06T04:02:43;1.35;;;0.80;;
35679;SDS011;21803;53.586;10.040;2024-03-06T04:05:09;0.90;;;0.80;;
35679;SDS011;21803;53.586;10.040;2024-03-06T04:07:38;0.90;;;0.80;;
35679;SDS011;21803;53.586;10.040;2024-03-06T04:10:03;0.70;;;0.70;;
35679;SDS011;21803;53.586;10.040;2024-03-06T04:12:29;0.75;;;0.70;;
35679;SDS011;21803;53.586;10.040;2024-03-06T04:14:55;1.25;;;0.75;;
35679;SDS011;21803;53.586;10.040;2024-03-06T04:17:21;0.85;;;0.75;;
35679;SDS011;21803;53.586;10.040;2024-03-06T04:19:47;0.70;;;0.70;;
35679;SDS011;21803;53.586;10.040;2024-03-06T04:22:13;0.82;;;0.80;;
35679;SDS011;21803;53.586;10.040;2024-03-06T04:24:42;1.00;;;0.80;;
35679;SDS011;21803;53.586;10.040;2024-03-06T04:27:08;0.70;;;0.70;;
35679;SDS011;21803;53.586;10.040;2024-03-06T04:29:33;0.70;;;0.70;;
35679;SDS011;21803;53.586;10.040;2024-03-06T04:31:59;0.90;;;0.90;;
35679;SDS011;21803;53.586;10.040;2024-03-06T04:34:24;0.95;;;0.80;;
35679;SDS011;21803;53.586;10.040;2024-03-06T04:36:50;0.80;;;0.80;;
35679;SDS011;21803;53.586;10.040;2024-03-06T04:39:16;0.70;;;0.68;;
35679;SDS011;21803;53.586;10.040;2024-03-06T04:41:41;0.70;;;0.70;;
35679;SDS011;21803;53.586;10.040;2024-03-06T04:44:07;0.90;;;0.80;;
35679;SDS011;21803;53.586;10.040;2024-03-06T04:46:33;1.13;;;0.80;;
35679;SDS011;21803;53.586;10.040;2024-03-06T04:48:58;0.63;;;0.63;;
35679;SDS011;21803;53.586;10.040;2024-03-06T04:51:24;0.80;;;0.73;;
35679;SDS011;21803;53.586;10.040;2024-03-06T04:53:49;1.17;;;0.90;;
35679;SDS011;21803;53.586;10.040;2024-03-06T04:56:15;0.95;;;0.65;;
35679;SDS011;21803;53.586;10.040;2024-03-06T04:58:43;0.70;;;0.70;;
35679;SDS011;21803;53.586;10.040;2024-03-06T05:01:09;0.63;;;0.57;;
35679;SDS011;21803;53.586;10.040;2024-03-06T05:03:36;0.65;;;0.65;;
35679;SDS011;21803;53.586;10.040;2024-03-06T05:06:03;0.88;;;0.80;;
35679;SDS011;21803;53.586;10.040;2024-03-06T05:08:30;0.70;;;0.70;;
35679;SDS011;21803;53.586;10.040;2024-03-06T05:10:55;1.65;;;0.80;;
35679;SDS011;21803;53.586;10.040;2024-03-06T05:13:21;0.70;;;0.60;;
35679;SDS011;21803;53.586;10.040;2024-03-06T05:15:47;0.88;;;0.80;;
35679;SDS011;21803;53.586;10.040;2024-03-06T05:18:13;0.57;;;0.57;;
35679;SDS011;21803;53.586;10.040;2024-03-06T05:20:38;0.85;;;0.85;;
35679;SDS011;21803;53.586;10.040;2024-03-06T05:23:04;0.70;;;0.70;;
35679;SDS011;21803;53.586;10.040;2024-03-06T05:25:29;0.75;;;0.75;;
35679;SDS011;21803;53.586;10.040;2024-03-06T05:27:55;0.60;;;0.60;;
35679;SDS011;21803;53.586;10.040;2024-03-06T05:30:20;0.85;;;0.70;;
35679;SDS011;21803;53.586;10.040;2024-03-06T05:32:46;0.93;;;0.70;;
35679;SDS011;21803;53.586;10.040;2024-03-06T05:35:12;0.70;;;0.70;;
35679;SDS011;21803;53.586;10.040;2024-03-06T05:37:38;0.60;;;0.60;;
35679;SDS011;21803;53.586;10.040;2024-03-06T05:40:04;0.70;;;0.70;;
35679;SDS011;21803;53.586;10.040;2024-03-06T05:42:30;0.75;;;0.65;;
35679;SDS011;21803;53.586;10.040;2024-03-06T05:44:56;0.60;;;0.60;;
35679;SDS011;21803;53.586;10.040;2024-03-06T05:47:35;0.73;;;0.60;;
35679;SDS011;21803;53.586;10.040;2024-03-06T05:50:04;0.60;;;0.60;;
35679;SDS011;21803;53.586;10.040;2024-03-06T05:52:31;0.80;;;0.80;;
35679;SDS011;21803;53.586;10.040;2024-03-06T05:54:57;0.90;;;0.70;;
35679;SDS011;21803;53.586;10.040;2024-03-06T05:57:23;0.75;;;0.75;;
35679;SDS011;21803;53.586;10.040;2024-03-06T05:59:50;1.33;;;0.52;;
35679;SDS011;21803;53.586;10.040;2024-03-06T06:02:15;0.50;;;0.50;;
35679;SDS011;21803;53.586;10.040;2024-03-06T06:04:45;0.50;;;0.50;;
35679;SDS011;21803;53.586;10.040;2024-03-06T06:07:10;0.70;;;0.70;;
35679;SDS011;21803;53.586;10.040;2024-03-06T06:09:36;0.73;;;0.73;;
35679;SDS011;21803;53.586;10.040;2024-03-06T06:12:02;0.45;;;0.45;;
35679;SDS011;21803;53.586;10.040;2024-03-06T06:14:27;0.60;;;0.60;;
35679;SDS011;21803;53.586;10.040;2024-03-06T06:16:54;1.10;;;0.75;;
35679;SDS011;21803;53.586;10.040;2024-03-06T06:19:21;0.57;;;0.57;;
35679;SDS011;21803;53.586;10.040;2024-03-06T06:21:46;0.60;;;0.60;;
35679;SDS011;21803;53.586;10.040;2024-03-06T06:24:13;0.73;;;0.60;;
35679;SDS011;21803;53.586;10.040;2024-03-06T06:26:39;0.60;;;0.60;;
35679;SDS011;21803;53.586;10.040;2024-03-06T06:29:04;0.70;;;0.68;;
35679;SDS011;21803;53.586;10.040;2024-03-06T06:31:30;0.95;;;0.70;;
35679;SDS011;21803;53.586;10.040;2024-03-06T06:33:56;0.85;;;0.80;;
35679;SDS011;21803;53.586;10.040;2024-03-06T06:36:22;0.52;;;0.50;;
35679;SDS011;21803;53.586;10.040;2024-03-06T06:38:48;0.57;;;0.57;;
35679;SDS011;21803;53.586;10.040;2024-03-06T06:41:14;0.85;;;0.80;;
35679;SDS011;21803;53.586;10.040;2024-03-06T06:43:40;0.70;;;0.60;;
35679;SDS011;21803;53.586;10.040;2024-03-06T06:46:06;0.60;;;0.60;;
35679;SDS011;21803;53.586;10.040;2024-03-06T06:48:32;0.70;;;0.70;;
35679;SDS011;21803;53.586;10.040;2024-03-06T06:50:58;0.68;;;0.60;;
35679;SDS011;21803;53.586;10.040;2024-03-06T06:53:28;0.73;;;0.70;;
35679;SDS011;21803;53.586;10.040;2024-03-06T06:55:54;0.70;;;0.65;;
35679;SDS011;21803;53.586;10.040;2024-03-06T06:58:20;0.70;;;0.70;;
35679;SDS011;21803;53.586;10.040;2024-03-06T07:00:45;0.80;;;0.70;;
35679;SDS011;21803;53.586;10.040;2024-03-06T07:03:11;0.80;;;0.80;;
35679;SDS011;21803;53.586;10.040;2024-03-06T07:05:37;0.70;;;0.70;;
35679;SDS011;21803;53.586;10.040;2024-03-06T07:08:03;0.75;;;0.75;;
35679;SDS011;21803;53.586;10.040;2024-03-06T07:10:29;0.88;;;0.80;;
35679;SDS011;21803;53.586;10.040;2024-03-06T07:12:54;0.70;;;0.70;;
35679;SDS011;21803;53.586;10.040;2024-03-06T07:15:20;0.75;;;0.75;;
35679;SDS011;21803;53.586;10.040;2024-03-06T07:17:46;0.70;;;0.70;;
35679;SDS011;21803;53.586;10.040;2024-03-06T07:20:12;0.80;;;0.63;;
35679;SDS011;21803;53.586;10.040;2024-03-06T07:22:39;0.60;;;0.57;;
35679;SDS011;21803;53.586;10.040;2024-03-06T07:25:05;0.68;;;0.65;;
35679;SDS011;21803;53.586;10.040;2024-03-06T07:27:30;0.70;;;0.60;;
35679;SDS011;21803;53.586;10.040;2024-03-06T07:29:56;0.90;;;0.70;;
35679;SDS011;21803;53.586;10.040;2024-03-06T07:32:22;0.68;;;0.68;;
35679;SDS011;21803;53.586;10.040;2024-03-06T07:34:47;0.70;;;0.63;;
35679;SDS011;21803;53.586;10.040;2024-03-06T07:37:13;0.70;;;0.68;;
35679;SDS011;21803;53.586;10.040;2024-03-06T07:39:40;0.70;;;0.65;;
35679;SDS011;21803;53.586;10.040;2024-03-06T07:42:05;0.57;;;0.57;;
35679;SDS011;21803;53.586;10.040;2024-03-06T07:44:31;0.50;;;0.50;;
35679;SDS011;21803;53.586;10.040;2024-03-06T07:46:56;0.98;;;0.88;;
35679;SDS011;21803;53.586;10.040;2024-03-06T07:49:22;0.68;;;0.60;;
35679;SDS011;21803;53.586;10.040;2024-03-06T07:51:48;0.65;;;0.65;;
35679;SDS011;21803;53.586;10.040;2024-03-06T07:54:13;0.80;;;0.73;;
35679;SDS011;21803;53.586;10.040;2024-03-06T07:56:39;1.00;;;0.88;;
35679;SDS011;21803;53.586;10.040;2024-03-06T07:59:05;0.68;;;0.68;;
35679;SDS011;21803;53.586;10.040;2024-03-06T08:01:30;1.13;;;0.70;;
35679;SDS011;21803;53.586;10.040;2024-03-06T08:03:57;0.50;;;0.50;;
35679;SDS011;21803;53.586;10.040;2024-03-06T08:06:23;0.52;;;0.52;;
35679;SDS011;21803;53.586;10.040;2024-03-06T08:08:49;0.60;;;0.50;;
35679;SDS011;21803;53.586;10.040;2024-03-06T08:11:16;0.50;;;0.50;;
35679;SDS011;21803;53.586;10.040;2024-03-06T08:13:43;0.73;;;0.60;;
35679;SDS011;21803;53.586;10.040;2024-03-06T08:16:09;1.00;;;0.75;;
35679;SDS011;21803;53.586;10.040;2024-03-06T08:18:35;0.70;;;0.60;;
35679;SDS011;21803;53.586;10.040;2024-03-06T08:21:01;0.52;;;0.52;;
35679;SDS011;21803;53.586;10.040;2024-03-06T08:23:30;0.77;;;0.68;;
35679;SDS011;21803;53.586;10.040;2024-03-06T08:25:55;0.77;;;0.57;;
35679;SDS011;21803;53.586;10.040;2024-03-06T08:28:21;0.60;;;0.60;;
35679;SDS011;21803;53.586;10.040;2024-03-06T08:30:47;0.50;;;0.50;;
35679;SDS011;21803;53.586;10.040;2024-03-06T08:33:12;0.70;;;0.68;;
35679;SDS011;21803;53.586;10.040;2024-03-06T08:35:38;0.63;;;0.60;;
35679;SDS011;21803;53.586;10.040;2024-03-06T08:38:04;0.57;;;0.55;;
35679;SDS011;21803;53.586;10.040;2024-03-06T08:40:31;0.70;;;0.60;;
35679;SDS011;21803;53.586;10.040;2024-03-06T08:42:57;0.98;;;0.70;;
35679;SDS011;21803;53.586;10.040;2024-03-06T08:45:23;0.82;;;0.50;;
35679;SDS011;21803;53.586;10.040;2024-03-06T08:47:49;0.68;;;0.60;;
35679;SDS011;21803;53.586;10.040;2024-03-06T08:50:14;0.60;;;0.60;;
35679;SDS011;21803;53.586;10.040;2024-03-06T08:52:40;0.60;;;0.60;;
35679;SDS011;21803;53.586;10.040;2024-03-06T08:55:06;1.10;;;0.60;;
35679;SDS011;21803;53.586;10.040;2024-03-06T08:57:35;0.65;;;0.60;;
35679;SDS011;21803;53.586;10.040;2024-03-06T09:00:02;1.27;;;0.60;;
35679;SDS011;21803;53.586;10.040;2024-03-06T09:02:28;0.77;;;0.55;;
35679;SDS011;21803;53.586;10.040;2024-03-06T09:04:54;0.95;;;0.60;;
35679;SDS011;21803;53.586;10.040;2024-03-06T09:07:20;0.50;;;0.50;;
35679;SDS011;21803;53.586;10.040;2024-03-06T09:09:48;0.63;;;0.60;;
35679;SDS011;21803;53.586;10.040;2024-03-06T09:12:17;0.55;;;0.55;;
35679;SDS011;21803;53.586;10.040;2024-03-06T09:14:42;0.68;;;0.57;;
35679;SDS011;21803;53.586;10.040;2024-03-06T09:17:09;0.50;;;0.50;;
35679;SDS011;21803;53.586;10.040;2024-03-06T09:19:35;0.68;;;0.60;;
35679;SDS011;21803;53.586;10.040;2024-03-06T09:22:01;0.55;;;0.50;;
35679;SDS011;21803;53.586;10.040;2024-03-06T09:24:27;0.70;;;0.60;;
35679;SDS011;21803;53.586;10.040;2024-03-06T09:26:53;0.95;;;0.65;;
35679;SDS011;21803;53.586;10.040;2024-03-06T09:29:19;0.70;;;0.70;;
35679;SDS011;21803;53.586;10.040;2024-03-06T09:31:46;0.98;;;0.60;;
35679;SDS011;21803;53.586;10.040;2024-03-06T09:34:12;1.70;;;0.63;;
35679;SDS011;21803;53.586;10.040;2024-03-06T09:36:45;0.65;;;0.60;;
35679;SDS011;21803;53.586;10.040;2024-03-06T09:39:12;0.60;;;0.57;;
35679;SDS011;21803;53.586;10.040;2024-03-06T09:41:41;1.10;;;0.60;;
35679;SDS011;21803;53.586;10.040;2024-03-06T09:44:08;0.60;;;0.60;;
35679;SDS011;21803;53.586;10.040;2024-03-06T09:46:35;0.40;;;0.40;;
35679;SDS011;21803;53.586;10.040;2024-03-06T09:49:01;0.57;;;0.57;;
35679;SDS011;21803;53.586;10.040;2024-03-06T09:51:28;0.95;;;0.55;;
35679;SDS011;21803;53.586;10.040;2024-03-06T09:53:53;0.60;;;0.57;;
35679;SDS011;21803;53.586;10.040;2024-03-06T09:56:19;0.70;;;0.70;;
35679;SDS011;21803;53.586;10.040;2024-03-06T09:58:48;0.77;;;0.70;;
35679;SDS011;21803;53.586;10.040;2024-03-06T10:01:14;1.00;;;0.70;;
35679;SDS011;21803;53.586;10.040;2024-03-06T10:03:40;0.63;;;0.63;;
35679;SDS011;21803;53.586;10.040;2024-03-06T10:06:06;0.70;;;0.63;;
35679;SDS011;21803;53.586;10.040;2024-03-06T10:08:32;0.60;;;0.60;;
35679;SDS011;21803;53.586;10.040;2024-03-06T10:10:58;0.52;;;0.50;;
35679;SDS011;21803;53.586;10.040;2024-03-06T10:13:24;0.60;;;0.60;;
35679;SDS011;21803;53.586;10.040;2024-03-06T10:16:00;0.75;;;0.75;;
35679;SDS011;21803;53.586;10.040;2024-03-06T10:18:27;0.70;;;0.70;;
35679;SDS011;21803;53.586;10.040;2024-03-06T10:20:54;0.70;;;0.70;;
35679;SDS011;21803;53.586;10.040;2024-03-06T10:23:20;0.70;;;0.52;;
35679;SDS011;21803;53.586;10.040;2024-03-06T10:25:49;0.60;;;0.60;;
35679;SDS011;21803;53.586;10.040;2024-03-06T10:28:22;0.73;;;0.60;;
35679;SDS011;21803;53.586;10.040;2024-03-06T10:30:48;0.60;;;0.60;;
35679;SDS011;21803;53.586;10.040;2024-03-06T10:33:15;0.68;;;0.68;;
35679;SDS011;21803;53.586;10.040;2024-03-06T10:35:45;0.50;;;0.50;;
35679;SDS011;21803;53.586;10.040;2024-03-06T10:38:13;1.17;;;0.80;;
35679;SDS011;21803;53.586;10.040;2024-03-06T10:40:39;0.88;;;0.70;;
35679;SDS011;21803;53.586;10.040;2024-03-06T10:43:08;0.50;;;0.50;;
35679;SDS011;21803;53.586;10.040;2024-03-06T10:45:48;0.60;;;0.60;;
35679;SDS011;21803;53.586;10.040;2024-03-06T10:48:26;0.70;;;0.60;;
35679;SDS011;21803;53.586;10.040;2024-03-06T10:50:53;0.80;;;0.80;;
35679;SDS011;21803;53.586;10.040;2024-03-06T10:53:21;0.80;;;0.70;;
35679;SDS011;21803;53.586;10.040;2024-03-06T10:55:48;0.77;;;0.70;;
35679;SDS011;21803;53.586;10.040;2024-03-06T10:58:14;0.70;;;0.70;;
35679;SDS011;21803;53.586;10.040;2024-03-06T11:00:42;0.55;;;0.55;;
35679;SDS011;21803;53.586;10.040;2024-03-06T11:03:14;0.70;;;0.70;;
35679;SDS011;21803;53.586;10.040;2024-03-06T11:05:40;0.73;;;0.73;;
35679;SDS011;21803;53.586;10.040;2024-03-06T11:08:07;0.70;;;0.70;;
35679;SDS011;21803;53.586;10.040;2024-03-06T11:10:35;0.75;;;0.70;;
35679;SDS011;21803;53.586;10.040;2024-03-06T11:13:02;0.65;;;0.65;;
35679;SDS011;21803;53.586;10.040;2024-03-06T11:15:29;1.00;;;0.90;;
35679;SDS011;21803;53.586;10.040;2024-03-06T11:17:55;0.80;;;0.80;;
35679;SDS011;21803;53.586;10.040;2024-03-06T11:20:21;0.70;;;0.70;;
35679;SDS011;21803;53.586;10.040;2024-03-06T11:28:12;0.70;;;0.63;;
35679;SDS011;21803;53.586;10.040;2024-03-06T11:33:37;0.80;;;0.70;;
35679;SDS011;21803;53.586;10.040;2024-03-06T11:38:47;0.82;;;0.73;;
35679;SDS011;21803;53.586;10.040;2024-03-06T11:41:13;0.80;;;0.70;;
35679;SDS011;21803;53.586;10.040;2024-03-06T11:43:42;0.80;;;0.70;;
35679;SDS011;21803;53.586;10.040;2024-03-06T11:46:09;0.70;;;0.70;;
35679;SDS011;21803;53.586;10.040;2024-03-06T11:48:36;0.80;;;0.70;;
35679;SDS011;21803;53.586;10.040;2024-03-06T11:51:02;0.68;;;0.68;;
35679;SDS011;21803;53.586;10.040;2024-03-06T11:53:29;0.90;;;0.80;;
35679;SDS011;21803;53.586;10.040;2024-03-06T11:55:55;0.80;;;0.80;;
35679;SDS011;21803;53.586;10.040;2024-03-06T11:58:21;7.60;;;3.67;;
35679;SDS011;21803;53.586;10.040;2024-03-06T12:00:47;5.68;;;2.40;;
35679;SDS011;21803;53.586;10.040;2024-03-06T12:03:13;4.38;;;2.50;;
35679;SDS011;21803;53.586;10.040;2024-03-06T12:05:39;2.42;;;1.80;;
35679;SDS011;21803;53.586;10.040;2024-03-06T12:08:06;2.63;;;1.85;;
35679;SDS011;21803;53.586;10.040;2024-03-06T12:10:36;3.00;;;1.70;;
35679;SDS011;21803;53.586;10.040;2024-03-06T12:13:02;2.20;;;1.30;;
35679;SDS011;21803;53.586;10.040;2024-03-06T12:15:28;1.98;;;1.33;;
35679;SDS011;21803;53.586;10.040;2024-03-06T12:17:54;1.83;;;1.40;;
35679;SDS011;21803;53.586;10.040;2024-03-06T12:20:20;1.83;;;1.30;;
35679;SDS011;21803;53.586;10.040;2024-03-06T12:22:49;1.90;;;1.40;;
35679;SDS011;21803;53.586;10.040;2024-03-06T12:25:25;1.90;;;1.30;;
35679;SDS011;21803;53.586;10.040;2024-03-06T12:27:53;1.35;;;1.20;;
35679;SDS011;21803;53.586;10.040;2024-03-06T12:30:20;1.70;;;1.30;;
35679;SDS011;21803;53.586;10.040;2024-03-06T12:32:57;2.05;;;1.30;;
35679;SDS011;21803;53.586;10.040;2024-03-06T12:35:29;2.55;;;1.42;;
35679;SDS011;21803;53.586;10.040;2024-03-06T12:37:55;1.63;;;1.20;;
35679;SDS011;21803;53.586;10.040;2024-03-06T12:40:21;1.25;;;1.13;;
35679;SDS011;21803;53.586;10.040;2024-03-06T12:42:47;1.60;;;1.20;;
35679;SDS011;21803;53.586;10.040;2024-03-06T12:45:14;2.28;;;1.40;;
35679;SDS011;21803;53.586;10.040;2024-03-06T12:47:40;3.55;;;1.20;;
35679;SDS011;21803;53.586;10.040;2024-03-06T12:50:10;2.22;;;1.20;;
35679;SDS011;21803;53.586;10.040;2024-03-06T12:52:36;1.48;;;1.10;;
35679;SDS011;21803;53.586;10.040;2024-03-06T12:55:05;1.30;;;1.15;;
35679;SDS011;21803;53.586;10.040;2024-03-06T12:57:32;1.65;;;1.30;;
35679;SDS011;21803;53.586;10.040;2024-03-06T12:59:57;1.45;;;1.33;;
35679;SDS011;21803;53.586;10.040;2024-03-06T13:02:23;2.30;;;1.30;;
35679;SDS011;21803;53.586;10.040;2024-03-06T13:04:49;1.23;;;0.90;;
35679;SDS011;21803;53.586;10.040;2024-03-06T13:07:14;2.33;;;1.08;;
35679;SDS011;21803;53.586;10.040;2024-03-06T13:09:40;0.90;;;0.80;;
35679;SDS011;21803;53.586;10.040;2024-03-06T13:12:05;2.92;;;1.27;;
35679;SDS011;21803;53.586;10.040;2024-03-06T13:14:31;1.05;;;0.95;;
35679;SDS011;21803;53.586;10.040;2024-03-06T13:16:57;1.67;;;1.20;;
35679;SDS011;21803;53.586;10.040;2024-03-06T13:19:23;1.10;;;1.00;;
35679;SDS011;21803;53.586;10.040;2024-03-06T13:21:49;1.83;;;1.38;;
35679;SDS011;21803;53.586;10.040;2024-03-06T13:24:14;1.45;;;1.13;;
35679;SDS011;21803;53.586;10.040;2024-03-06T13:26:40;1.38;;;1.25;;
35679;SDS011;21803;53.586;10.040;2024-03-06T13:29:06;2.72;;;1.00;;
35679;SDS011;21803;53.586;10.040;2024-03-06T13:31:32;1.52;;;1.17;;
35679;SDS011;21803;53.586;10.040;2024-03-06T13:33:59;2.20;;;0.90;;
35679;SDS011;21803;53.586;10.040;2024-03-06T13:36:25;1.45;;;1.30;;
35679;SDS011;21803;53.586;10.040;2024-03-06T13:38:51;1.40;;;1.20;;
35679;SDS011;21803;53.586;10.040;2024-03-06T13:41:17;1.55;;;1.10;;
35679;SDS011;21803;53.586;10.040;2024-03-06T13:43:43;1.20;;;1.02;;
35679;SDS011;21803;53.586;10.040;2024-03-06T13:46:08;1.13;;;1.00;;
35679;SDS011;21803;53.586;10.040;2024-03-06T13:48:34;1.70;;;1.20;;
35679;SDS011;21803;53.586;10.040;2024-03-06T13:51:01;1.10;;;1.00;;
35679;SDS011;21803;53.586;10.040;2024-03-06T13:53:26;1.00;;;0.90;;
35679;SDS011;21803;53.586;10.040;2024-03-06T13:55:52;1.25;;;0.93;;
35679;SDS011;21803;53.586;10.040;2024-03-06T13:58:17;1.10;;;1.00;;
35679;SDS011;21803;53.586;10.040;2024-03-06T14:00:43;1.20;;;1.02;;
35679;SDS011;21803;53.586;10.040;2024-03-06T14:03:09;1.10;;;1.00;;
35679;SDS011;21803;53.586;10.040;2024-03-06T14:05:37;1.20;;;0.90;;
35679;SDS011;21803;53.586;10.040;2024-03-06T14:08:05;0.93;;;0.82;;
35679;SDS011;21803;53.586;10.040;2024-03-06T14:10:31;1.77;;;1.17;;
35679;SDS011;21803;53.586;10.040;2024-03-06T14:13:02;1.20;;;1.00;;
35679;SDS011;21803;53.586;10.040;2024-03-06T14:15:28;1.23;;;1.00;;
35679;SDS011;21803;53.586;10.040;2024-03-06T14:17:53;1.15;;;1.05;;
35679;SDS011;21803;53.586;10.040;2024-03-06T14:20:19;1.10;;;1.00;;
35679;SDS011;21803;53.586;10.040;2024-03-06T14:22:45;1.75;;;1.00;;
35679;SDS011;21803;53.586;10.040;2024-03-06T14:25:11;1.15;;;1.05;;
35679;SDS011;21803;53.586;10.040;2024-03-06T14:27:37;1.20;;;1.00;;
35679;SDS011;21803;53.586;10.040;2024-03-06T14:30:06;1.20;;;0.90;;
35679;SDS011;21803;53.586;10.040;2024-03-06T14:32:32;1.33;;;1.00;;
35679;SDS011;21803;53.586;10.040;2024-03-06T14:34:58;1.20;;;1.00;;
35679;SDS011;21803;53.586;10.040;2024-03-06T14:37:24;1.15;;;1.05;;
35679;SDS011;21803;53.586;10.040;2024-03-06T14:39:49;1.08;;;0.98;;